Time;durP1;ratioP1;P1;durP2;ratioP2;P2;SDS_P1;SDS_P2;PMS_P1;PMS_P2;Temp;Humidity;BMP_temperature;BMP_pressure;BME280_temperature;BME280_humidity;BME280_pressure;Samples;Min_cycle;Max_cycle;Signal;HPM_P1;HPM_P2
2023/08/27 00:00:52;;;;;;;8.32;5.78;;;14.00;99.90;;;;;;4817113;29;20056;-91
2023/08/27 00:03:18;;;;;;;7.63;5.13;;;14.00;99.90;;;;;;4800703;29;20044;-91
2023/08/27 00:05:44;;;;;;;6.75;5.38;;;13.90;99.90;;;;;;4821709;29;20574;-92
2023/08/27 00:08:13;;;;;;;5.75;5.25;;;14.00;99.90;;;;;;4801039;29;20430;-91
2023/08/27 00:10:39;;;;;;;6.15;5.55;;;13.90;99.90;;;;;;4831036;29;20046;-92
2023/08/27 00:13:04;;;;;;;5.80;5.20;;;14.00;99.90;;;;;;4810060;29;20049;-92
2023/08/27 00:15:30;;;;;;;5.75;5.25;;;14.00;99.90;;;;;;4829329;29;20045;-94
2023/08/27 00:17:56;;;;;;;6.15;5.47;;;13.90;99.90;;;;;;4820869;29;20045;-92
2023/08/27 00:20:22;;;;;;;6.72;5.68;;;13.90;99.90;;;;;;4830749;29;20136;-91
2023/08/27 00:22:47;;;;;;;6.95;5.60;;;13.90;99.90;;;;;;4837014;29;20520;-93
2023/08/27 00:25:13;;;;;;;7.47;5.60;;;13.90;99.90;;;;;;4821247;29;20060;-93
2023/08/27 00:27:39;;;;;;;6.07;5.47;;;14.00;99.90;;;;;;4811605;29;20034;-92
2023/08/27 00:30:05;;;;;;;6.65;5.95;;;13.80;99.90;;;;;;4818420;29;20474;-92
2023/08/27 00:32:33;;;;;;;6.90;5.20;;;13.80;99.90;;;;;;4801169;29;20125;-92
2023/08/27 00:34:59;;;;;;;5.88;5.28;;;13.90;99.90;;;;;;4831642;29;20045;-92
2023/08/27 00:37:25;;;;;;;6.13;5.50;;;14.00;99.90;;;;;;4816217;29;20045;-95
2023/08/27 00:39:51;;;;;;;5.78;5.18;;;13.90;99.90;;;;;;4831390;29;20137;-92
2023/08/27 00:42:17;;;;;;;6.55;5.10;;;13.90;99.90;;;;;;4815435;29;20045;-92
2023/08/27 00:44:43;;;;;;;8.18;5.80;;;13.90;99.90;;;;;;4798802;29;20052;-94
2023/08/27 00:47:11;;;;;;;7.03;5.10;;;13.80;99.90;;;;;;4814607;29;20081;-92
2023/08/27 00:49:38;;;;;;;5.93;5.32;;;13.70;99.90;;;;;;4824457;29;20046;-92
2023/08/27 00:52:05;;;;;;;6.18;5.30;;;13.80;99.90;;;;;;4815547;29;20053;-94
2023/08/27 00:54:32;;;;;;;5.75;5.25;;;13.80;99.90;;;;;;4797906;29;20052;-91
2023/08/27 00:56:58;;;;;;;6.15;5.55;;;13.70;99.90;;;;;;4813192;29;20045;-93
2023/08/27 00:59:24;;;;;;;7.22;5.13;;;13.80;99.90;;;;;;4801647;29;20045;-91
2023/08/27 01:01:52;;;;;;;6.82;5.30;;;13.90;99.90;;;;;;4798086;29;20048;-93
2023/08/27 01:04:17;;;;;;;6.22;5.63;;;13.90;99.90;;;;;;4812805;29;20082;-93
2023/08/27 01:06:44;;;;;;;9.63;5.60;;;13.80;99.90;;;;;;4813080;29;20041;-91
2023/08/27 01:09:41;;;;;;;5.72;5.13;;;13.70;99.90;;;;;;4837892;29;20053;-92
2023/08/27 01:12:32;;;;;;;5.53;4.85;;;13.70;99.90;;;;;;4828232;29;20310;-92
2023/08/27 01:15:01;;;;;;;7.20;5.20;;;13.50;99.90;;;;;;4843819;29;20052;-92
2023/08/27 01:17:27;;;;;;;5.45;4.47;;;13.60;99.90;;;;;;4830955;29;20049;-93
2023/08/27 01:19:54;;;;;;;7.97;5.00;;;13.60;99.90;;;;;;4813619;29;20065;-94
2023/08/27 01:22:19;;;;;;;6.28;5.07;;;13.50;99.90;;;;;;4799651;29;20522;-92
2023/08/27 01:24:45;;;;;;;6.47;5.43;;;13.40;99.90;;;;;;4834265;29;20064;-90
2023/08/27 01:27:31;;;;;;;5.95;5.18;;;13.50;99.90;;;;;;4796213;29;20508;-94
2023/08/27 01:30:20;;;;;;;6.07;5.10;;;13.40;99.90;;;;;;4828190;29;20469;-93
2023/08/27 01:33:03;;;;;;;6.85;5.50;;;13.40;99.90;;;;;;4821495;29;20065;-94
2023/08/27 01:35:30;;;;;;;6.38;5.22;;;13.40;99.90;;;;;;4817892;29;20041;-91
2023/08/27 01:37:56;;;;;;;6.43;5.70;;;13.50;99.90;;;;;;4847356;29;20053;-93
2023/08/27 01:40:22;;;;;;;6.03;5.43;;;13.40;99.90;;;;;;4798337;29;20194;-93
2023/08/27 01:42:48;;;;;;;7.88;5.90;;;13.40;99.90;;;;;;4813088;29;20079;-93
2023/08/27 01:45:15;;;;;;;7.57;5.70;;;13.40;99.90;;;;;;4809268;29;20057;-94
2023/08/27 01:47:40;;;;;;;7.30;5.20;;;13.40;99.90;;;;;;4810194;29;20057;-92
2023/08/27 01:50:07;;;;;;;9.48;5.90;;;13.30;99.90;;;;;;4802497;29;20517;-91
2023/08/27 01:52:35;;;;;;;6.15;5.35;;;13.40;99.90;;;;;;4838179;29;20056;-90
2023/08/27 01:55:01;;;;;;;7.75;5.22;;;13.40;99.90;;;;;;4831240;29;20045;-90
2023/08/27 01:57:27;;;;;;;6.78;5.57;;;13.30;99.90;;;;;;4822328;29;20049;-90
2023/08/27 01:59:53;;;;;;;6.55;5.32;;;13.40;99.90;;;;;;4822248;29;20056;-91
2023/08/27 02:02:18;;;;;;;7.55;5.65;;;13.40;99.90;;;;;;4823043;29;20132;-89
2023/08/27 02:04:44;;;;;;;7.32;5.60;;;13.30;99.90;;;;;;4818689;29;20056;-89
2023/08/27 02:07:10;;;;;;;7.75;5.85;;;13.30;99.90;;;;;;4825855;29;20073;-88
2023/08/27 02:09:36;;;;;;;6.55;5.72;;;13.40;99.90;;;;;;4793707;29;20046;-91
2023/08/27 02:12:04;;;;;;;5.25;4.75;;;13.40;99.90;;;;;;4800282;29;20042;-90
2023/08/27 02:14:29;;;;;;;6.47;5.00;;;13.30;99.90;;;;;;4813782;29;20110;-92
2023/08/27 02:16:55;;;;;;;6.13;4.95;;;13.30;99.90;;;;;;4842205;29;20056;-91
2023/08/27 02:19:21;;;;;;;5.18;4.57;;;13.20;99.90;;;;;;4823009;29;20115;-92
2023/08/27 02:21:47;;;;;;;5.72;4.90;;;13.10;99.90;;;;;;4790408;29;20655;-91
2023/08/27 02:24:13;;;;;;;5.28;4.78;;;13.00;99.90;;;;;;4819883;29;20071;-91
2023/08/27 02:26:39;;;;;;;5.93;5.22;;;13.10;99.90;;;;;;4812309;29;20041;-90
2023/08/27 02:29:05;;;;;;;6.03;5.03;;;13.10;99.90;;;;;;4808116;29;20125;-91
2023/08/27 02:31:30;;;;;;;5.70;5.20;;;13.00;99.90;;;;;;4811857;29;20040;-91
2023/08/27 02:33:56;;;;;;;6.40;4.80;;;13.00;99.90;;;;;;4796796;29;20513;-89
2023/08/27 02:36:22;;;;;;;5.35;4.57;;;12.90;99.90;;;;;;4821666;29;20085;-90
2023/08/27 02:38:48;;;;;;;5.63;5.07;;;12.90;99.90;;;;;;4811086;29;20443;-90
2023/08/27 02:41:13;;;;;;;6.85;5.07;;;12.70;99.90;;;;;;4811819;29;20060;-89
2023/08/27 02:43:39;;;;;;;5.65;4.65;;;12.70;99.90;;;;;;4793200;29;20211;-88
2023/08/27 02:46:06;;;;;;;5.45;4.95;;;12.60;99.90;;;;;;4835269;29;20358;-90
2023/08/27 02:48:32;;;;;;;6.25;5.65;;;12.60;99.90;;;;;;4839943;29;20052;-91
2023/08/27 02:50:57;;;;;;;7.18;5.45;;;12.70;99.90;;;;;;4797015;29;20025;-91
2023/08/27 02:53:23;;;;;;;7.45;5.22;;;12.70;99.90;;;;;;4811930;29;20140;-92
2023/08/27 02:55:49;;;;;;;6.68;5.00;;;12.70;99.90;;;;;;4810795;29;20060;-91
2023/08/27 02:58:14;;;;;;;5.70;4.85;;;12.80;99.90;;;;;;4792305;29;20057;-92
2023/08/27 03:00:40;;;;;;;5.47;4.97;;;12.70;99.90;;;;;;4823803;29;20053;-91
2023/08/27 03:03:07;;;;;;;5.30;4.80;;;12.60;99.90;;;;;;4806312;29;20044;-92
2023/08/27 03:05:33;;;;;;;5.75;4.97;;;12.60;99.90;;;;;;4833397;29;20055;-92
2023/08/27 03:07:59;;;;;;;7.07;5.97;;;12.70;99.90;;;;;;4823130;29;20037;-91
2023/08/27 03:10:25;;;;;;;6.43;5.82;;;12.70;99.90;;;;;;4824313;29;20067;-90
2023/08/27 03:12:50;;;;;;;7.57;6.03;;;12.80;99.90;;;;;;4825194;29;20037;-90
2023/08/27 03:15:16;;;;;;;6.50;5.78;;;12.90;99.90;;;;;;4806434;29;20045;-93
2023/08/27 03:17:42;;;;;;;7.60;6.13;;;12.80;99.90;;;;;;4831305;29;20065;-90
2023/08/27 03:20:09;;;;;;;9.60;6.78;;;12.90;99.90;;;;;;4827688;29;20053;-91
2023/08/27 03:22:34;;;;;;;7.67;6.87;;;12.90;99.90;;;;;;4799026;29;20113;-92
2023/08/27 03:25:01;;;;;;;7.68;6.85;;;12.80;99.90;;;;;;4798859;29;21017;-92
2023/08/27 03:27:28;;;;;;;7.40;6.53;;;13.00;99.90;;;;;;4812290;29;20048;-92
2023/08/27 03:29:54;;;;;;;9.38;6.57;;;13.10;99.90;;;;;;4834399;29;20557;-91
2023/08/27 03:32:20;;;;;;;8.25;6.75;;;13.10;99.90;;;;;;4828950;29;20041;-92
2023/08/27 03:34:45;;;;;;;7.07;6.38;;;12.90;99.90;;;;;;4810225;29;20520;-91
2023/08/27 03:37:11;;;;;;;9.73;6.53;;;13.10;99.90;;;;;;4818254;29;20466;-91
2023/08/27 03:39:37;;;;;;;7.60;6.90;;;13.10;99.90;;;;;;4852291;29;20412;-92
2023/08/27 03:42:03;;;;;;;7.40;6.13;;;13.00;99.90;;;;;;4795930;29;20048;-92
2023/08/27 03:44:28;;;;;;;8.30;7.10;;;13.00;99.90;;;;;;4833846;29;20103;-90
2023/08/27 03:46:54;;;;;;;7.43;6.68;;;13.10;99.90;;;;;;4819368;29;20045;-89
2023/08/27 03:49:20;;;;;;;8.38;6.65;;;13.00;99.90;;;;;;4836910;29;20434;-90
2023/08/27 03:51:46;;;;;;;7.80;6.78;;;13.20;99.90;;;;;;4815627;29;20203;-88
2023/08/27 03:54:12;;;;;;;7.07;6.38;;;13.30;99.90;;;;;;4827813;29;20044;-91
2023/08/27 03:56:38;;;;;;;8.50;6.60;;;13.20;99.90;;;;;;4835575;29;20061;-91
2023/08/27 03:59:06;;;;;;;8.60;7.22;;;13.20;99.90;;;;;;4823570;29;20053;-91
2023/08/27 04:01:32;;;;;;;7.60;6.80;;;13.10;99.90;;;;;;4825879;29;20049;-92
2023/08/27 04:03:58;;;;;;;9.50;7.00;;;13.20;99.90;;;;;;4812097;29;20045;-93
2023/08/27 04:06:24;;;;;;;7.28;6.57;;;13.30;99.90;;;;;;4817387;29;20056;-92
2023/08/27 04:08:49;;;;;;;8.57;6.57;;;13.50;99.90;;;;;;4840419;29;20037;-94
2023/08/27 04:11:16;;;;;;;7.30;6.60;;;13.30;99.90;;;;;;4842724;29;20041;-93
2023/08/27 04:13:41;;;;;;;6.90;6.20;;;13.30;99.90;;;;;;4821906;29;20124;-90
2023/08/27 04:16:10;;;;;;;7.22;6.53;;;13.40;99.90;;;;;;4798054;29;20129;-90
2023/08/27 04:18:36;;;;;;;7.00;6.35;;;13.30;99.90;;;;;;4819423;29;20045;-93
2023/08/27 04:21:03;;;;;;;7.70;6.68;;;13.50;99.90;;;;;;4797538;29;20053;-91
2023/08/27 04:23:28;;;;;;;7.50;6.80;;;13.40;99.90;;;;;;4810596;29;20037;-91
2023/08/27 04:25:55;;;;;;;7.30;6.50;;;13.50;99.90;;;;;;4817318;29;20384;-90
2023/08/27 04:28:21;;;;;;;8.23;5.93;;;13.50;99.90;;;;;;4832648;29;20046;-91
2023/08/27 04:30:48;;;;;;;7.32;6.63;;;13.40;99.90;;;;;;4797076;29;20072;-92
2023/08/27 04:33:15;;;;;;;6.45;5.85;;;13.50;99.90;;;;;;4822258;29;20481;-91
2023/08/27 04:35:42;;;;;;;7.47;5.80;;;13.50;99.90;;;;;;4816316;29;20333;-91
2023/08/27 04:38:08;;;;;;;8.35;5.78;;;13.60;99.90;;;;;;4800910;29;20046;-92
2023/08/27 04:40:34;;;;;;;6.70;6.00;;;13.40;99.90;;;;;;4827167;29;20145;-92
2023/08/27 04:43:00;;;;;;;7.43;6.43;;;13.50;99.90;;;;;;4816168;29;20319;-92
2023/08/27 04:45:26;;;;;;;5.90;5.38;;;13.40;99.90;;;;;;4829299;29;20041;-92
2023/08/27 04:47:51;;;;;;;6.65;5.97;;;13.60;99.90;;;;;;4823825;29;20037;-90
2023/08/27 04:50:18;;;;;;;6.20;5.40;;;13.50;99.90;;;;;;4811166;29;20048;-91
2023/08/27 04:52:43;;;;;;;7.47;6.50;;;13.70;99.90;;;;;;4828232;29;20064;-91
2023/08/27 04:55:09;;;;;;;7.25;6.15;;;13.60;99.90;;;;;;4815609;29;20463;-91
2023/08/27 04:57:36;;;;;;;6.32;5.72;;;13.60;99.90;;;;;;4839541;29;20569;-90
2023/08/27 05:00:04;;;;;;;7.47;6.03;;;13.60;99.90;;;;;;4813191;29;20111;-89
2023/08/27 05:02:29;;;;;;;8.68;5.68;;;13.70;99.90;;;;;;4843408;29;20099;-92
2023/08/27 05:04:55;;;;;;;7.18;5.80;;;13.50;99.90;;;;;;4821824;29;20077;-89
2023/08/27 05:07:21;;;;;;;7.15;5.32;;;13.60;99.90;;;;;;4833171;29;20045;-93
2023/08/27 05:09:47;;;;;;;7.15;5.93;;;13.80;99.90;;;;;;4828327;29;20046;-92
2023/08/27 05:12:12;;;;;;;5.55;5.05;;;13.60;99.90;;;;;;4811496;29;20065;-91
2023/08/27 05:14:38;;;;;;;6.38;5.32;;;13.70;99.90;;;;;;4809492;29;20240;-92
2023/08/27 05:17:04;;;;;;;7.55;5.72;;;13.80;99.90;;;;;;4836922;29;20054;-89
2023/08/27 05:19:29;;;;;;;5.28;4.78;;;13.70;99.90;;;;;;4836985;29;20148;-94
2023/08/27 05:21:55;;;;;;;5.75;5.15;;;13.80;99.90;;;;;;4823714;29;20042;-91
2023/08/27 05:24:21;;;;;;;8.10;5.32;;;13.70;99.90;;;;;;4818460;29;20079;-94
2023/08/27 05:26:46;;;;;;;5.75;5.20;;;13.80;99.90;;;;;;4825872;29;20045;-91
2023/08/27 05:29:12;;;;;;;7.13;5.47;;;13.80;99.90;;;;;;4790891;29;20195;-90
2023/08/27 05:31:38;;;;;;;6.15;5.28;;;13.80;99.90;;;;;;4812803;29;20060;-88
2023/08/27 05:34:04;;;;;;;6.32;5.10;;;13.70;99.90;;;;;;4824480;29;20072;-89
2023/08/27 05:36:29;;;;;;;5.88;5.35;;;13.80;99.90;;;;;;4824416;29;20042;-95
2023/08/27 05:38:57;;;;;;;5.72;5.00;;;13.80;99.90;;;;;;4822954;29;20045;-93
2023/08/27 05:41:22;;;;;;;5.20;4.70;;;13.70;99.90;;;;;;4811585;29;20492;-92
2023/08/27 05:43:49;;;;;;;5.90;4.70;;;13.70;99.90;;;;;;4799362;29;20042;-92
2023/08/27 05:46:15;;;;;;;5.90;4.93;;;13.70;99.90;;;;;;4819446;29;20552;-90
2023/08/27 05:48:41;;;;;;;5.93;5.32;;;13.80;99.90;;;;;;4811445;29;20125;-87
2023/08/27 05:51:07;;;;;;;5.68;5.18;;;13.90;99.90;;;;;;4823030;29;20045;-91
2023/08/27 05:53:32;;;;;;;6.30;4.53;;;14.10;99.90;;;;;;4824890;29;20041;-93
2023/08/27 05:55:58;;;;;;;4.95;4.53;;;14.30;99.90;;;;;;4842873;29;20072;-90
2023/08/27 05:58:24;;;;;;;5.22;4.72;;;14.50;99.90;;;;;;4805125;29;20238;-89
2023/08/27 06:00:53;;;;;;;5.75;4.82;;;14.60;99.90;;;;;;4806330;29;20057;-85
2023/08/27 06:03:20;;;;;;;6.68;4.30;;;14.80;99.90;;;;;;4808074;29;20524;-93
2023/08/27 06:05:46;;;;;;;4.82;4.32;;;14.80;99.90;;;;;;4819266;29;20089;-93
2023/08/27 06:08:12;;;;;;;4.85;3.97;;;14.90;99.90;;;;;;4784579;29;20521;-92
2023/08/27 06:10:37;;;;;;;4.00;3.60;;;14.80;99.90;;;;;;4809340;29;20428;-91
2023/08/27 06:13:03;;;;;;;4.15;3.75;;;14.90;99.90;;;;;;4809606;29;20568;-94
2023/08/27 06:15:30;;;;;;;5.57;4.00;;;14.80;99.90;;;;;;4816023;29;20052;-93
2023/08/27 06:18:00;;;;;;;6.18;4.13;;;14.80;99.90;;;;;;4813225;29;20057;-94
2023/08/27 06:20:26;;;;;;;6.45;4.07;;;14.80;99.90;;;;;;4797139;29;20061;-92
2023/08/27 06:22:51;;;;;;;4.78;3.80;;;14.80;99.90;;;;;;4796253;29;20052;-93
2023/08/27 06:25:17;;;;;;;4.57;4.00;;;14.70;99.90;;;;;;4811371;29;20060;-88
2023/08/27 06:27:43;;;;;;;5.47;4.30;;;14.70;99.90;;;;;;4824603;29;20485;-94
2023/08/27 06:30:09;;;;;;;5.78;4.20;;;14.60;99.90;;;;;;4839879;29;20049;-89
2023/08/27 06:32:35;;;;;;;4.72;4.22;;;14.60;99.90;;;;;;4821916;29;20121;-92
2023/08/27 06:35:01;;;;;;;4.30;3.83;;;14.70;99.90;;;;;;4794185;29;20105;-90
2023/08/27 06:37:26;;;;;;;4.20;3.80;;;14.70;99.90;;;;;;4814253;29;20053;-93
2023/08/27 06:39:52;;;;;;;5.75;3.95;;;14.80;99.90;;;;;;4808836;29;20557;-93
2023/08/27 06:42:18;;;;;;;4.93;3.67;;;14.70;99.90;;;;;;4797988;29;20045;-87
2023/08/27 06:44:44;;;;;;;4.55;3.72;;;14.80;99.90;;;;;;4805218;29;20536;-91
2023/08/27 06:47:12;;;;;;;5.45;4.07;;;14.70;99.90;;;;;;4824191;29;20116;-93
2023/08/27 06:49:38;;;;;;;5.82;3.85;;;14.90;99.90;;;;;;4823395;29;20042;-92
2023/08/27 06:52:04;;;;;;;4.53;3.60;;;14.70;99.90;;;;;;4815382;29;20046;-86
2023/08/27 06:54:30;;;;;;;4.13;3.72;;;14.60;99.90;;;;;;4823266;29;20048;-93
2023/08/27 06:56:56;;;;;;;5.13;3.58;;;14.70;99.90;;;;;;4815257;29;20053;-93
2023/08/27 06:59:25;;;;;;;5.80;3.78;;;14.60;99.90;;;;;;4804186;29;20046;-89
2023/08/27 07:01:51;;;;;;;3.97;3.50;;;14.50;99.90;;;;;;4844411;29;20076;-85
2023/08/27 07:04:17;;;;;;;3.97;3.58;;;14.60;99.90;;;;;;4807586;29;20544;-87
2023/08/27 07:06:43;;;;;;;4.40;3.20;;;14.60;99.90;;;;;;4801920;29;20042;-90
2023/08/27 07:09:09;;;;;;;4.32;3.45;;;14.70;99.90;;;;;;4805649;29;20105;-91
2023/08/27 07:11:34;;;;;;;4.97;3.63;;;14.60;99.90;;;;;;4788005;29;20053;-92
2023/08/27 07:14:00;;;;;;;3.33;3.03;;;14.60;99.90;;;;;;4817448;29;20049;-88
2023/08/27 07:16:26;;;;;;;4.53;3.17;;;14.60;99.90;;;;;;4814102;29;20048;-92
2023/08/27 07:18:53;;;;;;;5.60;3.25;;;14.70;99.90;;;;;;4828967;29;20065;-87
2023/08/27 07:21:22;;;;;;;4.25;3.10;;;14.60;99.90;;;;;;4820327;29;20073;-90
2023/08/27 07:23:47;;;;;;;4.97;3.28;;;14.60;99.90;;;;;;4810104;29;20079;-91
2023/08/27 07:26:13;;;;;;;3.08;2.38;;;14.70;99.90;;;;;;4801918;29;20287;-92
2023/08/27 07:28:39;;;;;;;4.15;2.70;;;14.60;99.90;;;;;;4810781;29;20128;-90
2023/08/27 07:31:05;;;;;;;3.25;2.17;;;14.70;99.90;;;;;;4817896;29;20038;-92
2023/08/27 07:33:32;;;;;;;2.60;2.10;;;14.60;99.90;;;;;;4821845;29;20092;-94
2023/08/27 07:35:57;;;;;;;3.33;2.15;;;14.60;99.90;;;;;;4818773;29;20041;-94
2023/08/27 07:38:26;;;;;;;3.60;2.30;;;14.60;99.90;;;;;;4808638;29;20060;-88
2023/08/27 07:40:52;;;;;;;3.50;2.30;;;14.60;99.90;;;;;;4842635;29;20048;-92
2023/08/27 07:43:19;;;;;;;3.75;2.08;;;14.60;99.90;;;;;;4805831;29;20092;-89
2023/08/27 07:45:45;;;;;;;4.10;2.40;;;14.60;99.90;;;;;;4803686;29;20455;-91
2023/08/27 07:48:10;;;;;;;4.38;2.30;;;14.60;99.90;;;;;;4819087;29;20060;-89
2023/08/27 07:50:39;;;;;;;3.58;2.05;;;14.70;99.90;;;;;;4808784;29;20046;-87
2023/08/27 07:53:04;;;;;;;2.80;1.88;;;14.60;99.90;;;;;;4802901;29;20549;-85
2023/08/27 07:55:34;;;;;;;3.30;1.58;;;14.70;99.90;;;;;;4812082;29;20376;-88
2023/08/27 07:58:00;;;;;;;1.83;1.40;;;14.70;99.90;;;;;;4818158;29;20042;-88
2023/08/27 08:00:26;;;;;;;2.70;1.60;;;14.70;99.90;;;;;;4822923;29;20046;-87
2023/08/27 08:02:52;;;;;;;2.75;1.70;;;14.70;99.90;;;;;;4818318;29;20049;-88
2023/08/27 08:05:17;;;;;;;2.75;1.58;;;14.70;99.90;;;;;;4816545;29;20050;-87
2023/08/27 08:07:49;;;;;;;3.60;1.30;;;14.80;99.90;;;;;;4805442;29;20516;-84
2023/08/27 08:10:15;;;;;;;2.15;1.40;;;14.90;99.90;;;;;;4817167;29;20081;-88
2023/08/27 08:12:41;;;;;;;3.10;1.20;;;15.00;99.90;;;;;;4821852;29;20501;-87
2023/08/27 08:15:07;;;;;;;2.63;1.70;;;15.20;99.90;;;;;;4814022;29;20235;-88
2023/08/27 08:17:33;;;;;;;2.50;1.50;;;15.50;99.90;;;;;;4824226;29;20045;-91
2023/08/27 08:19:59;;;;;;;1.77;1.35;;;16.70;99.90;;;;;;4837663;29;20516;-90
2023/08/27 08:22:25;;;;;;;2.53;1.40;;;18.20;99.90;;;;;;4838120;29;20463;-92
2023/08/27 08:24:51;;;;;;;1.88;1.17;;;19.50;99.90;;;;;;4810184;29;20076;-88
2023/08/27 08:27:20;;;;;;;2.17;0.88;;;20.50;99.90;;;;;;4819381;29;20053;-91
2023/08/27 08:29:46;;;;;;;2.60;1.02;;;21.30;99.90;;;;;;4827430;29;20037;-92
2023/08/27 08:32:12;;;;;;;3.15;1.30;;;22.00;99.90;;;;;;4825778;29;20713;-90
2023/08/27 08:34:39;;;;;;;1.83;1.02;;;22.50;99.90;;;;;;4819427;29;20053;-93
2023/08/27 08:37:05;;;;;;;1.88;0.88;;;23.00;99.90;;;;;;4843333;29;20046;-89
2023/08/27 08:39:34;;;;;;;1.85;1.20;;;23.30;99.90;;;;;;4814443;29;20132;-90
2023/08/27 08:42:09;;;;;;;2.03;1.20;;;23.60;99.90;;;;;;4818747;29;20121;-88
2023/08/27 08:45:04;;;;;;;2.17;1.00;;;23.60;99.90;;;;;;4812434;29;20046;-88
2023/08/27 08:47:34;;;;;;;2.53;1.30;;;23.80;99.90;;;;;;4815343;29;20371;-92
2023/08/27 08:50:05;;;;;;;2.17;1.10;;;23.30;99.90;;;;;;4822125;29;20398;-90
2023/08/27 08:52:42;;;;;;;1.98;1.10;;;23.10;99.90;;;;;;4821839;29;20045;-90
2023/08/27 08:55:09;;;;;;;1.80;1.23;;;23.10;99.90;;;;;;4822436;29;20498;-96
2023/08/27 08:57:44;;;;;;;3.25;1.30;;;23.00;99.90;;;;;;4817757;29;20069;-90
2023/08/27 09:00:11;;;;;;;1.10;0.85;;;22.80;99.90;;;;;;4816741;29;20042;-94
2023/08/27 09:02:38;;;;;;;1.50;1.00;;;22.60;99.90;;;;;;4819949;29;20045;-95
2023/08/27 09:05:05;;;;;;;1.63;1.00;;;22.20;99.90;;;;;;4828345;29;20056;-91
2023/08/27 09:07:33;;;;;;;1.98;1.00;;;21.70;99.90;;;;;;4835506;29;20167;-88
2023/08/27 09:10:01;;;;;;;1.40;0.90;;;21.50;99.90;;;;;;4819756;29;20057;-91
2023/08/27 09:12:27;;;;;;;1.92;1.00;;;21.20;99.90;;;;;;4824895;29;20045;-91
2023/08/27 09:14:58;;;;;;;1.17;0.85;;;21.10;99.90;;;;;;4839600;29;20561;-93
2023/08/27 09:17:27;;;;;;;1.83;1.08;;;21.00;99.90;;;;;;4833432;29;20710;-92
2023/08/27 09:19:53;;;;;;;0.73;0.70;;;21.00;99.90;;;;;;4798621;29;20045;-89
2023/08/27 09:22:19;;;;;;;1.27;1.00;;;20.90;99.90;;;;;;4805167;29;20073;-91
2023/08/27 09:24:46;;;;;;;1.30;0.90;;;20.90;99.90;;;;;;4815112;29;20050;-89
2023/08/27 09:27:16;;;;;;;1.30;0.80;;;20.90;99.90;;;;;;4812775;29;20057;-90
2023/08/27 09:29:42;;;;;;;1.45;0.90;;;20.80;99.90;;;;;;4824537;29;20497;-91
2023/08/27 09:32:22;;;;;;;1.33;0.80;;;20.80;99.90;;;;;;4831875;29;20450;-92
2023/08/27 09:34:48;;;;;;;1.58;0.95;;;20.70;99.90;;;;;;4828330;29;20079;-89
2023/08/27 09:37:14;;;;;;;1.15;0.60;;;20.70;99.90;;;;;;4815514;29;20054;-88
2023/08/27 09:39:42;;;;;;;1.17;0.82;;;20.80;99.90;;;;;;4830335;29;20361;-91
2023/08/27 09:42:11;;;;;;;2.30;0.88;;;20.70;99.90;;;;;;4808888;29;20037;-90
2023/08/27 09:44:37;;;;;;;1.88;0.90;;;20.70;99.90;;;;;;4817303;29;20042;-91
2023/08/27 09:47:05;;;;;;;2.30;0.83;;;20.70;99.90;;;;;;4823897;29;20045;-91
2023/08/27 09:49:30;;;;;;;;;;;20.60;99.90;;;;;;4806322;29;20406;-88
2023/08/27 09:51:58;;;;;;;2.08;0.80;;;20.40;99.90;;;;;;4809660;29;19924;-90
2023/08/27 09:54:30;;;;;;;1.10;0.70;;;20.20;99.90;;;;;;4797202;29;21073;-86
2023/08/27 09:57:05;;;;;;;0.93;0.70;;;20.00;99.90;;;;;;4825286;29;20049;-90
2023/08/27 09:59:30;;;;;;;1.40;0.70;;;19.90;99.90;;;;;;4828344;29;20046;-86
2023/08/27 10:01:56;;;;;;;1.75;0.65;;;19.90;99.90;;;;;;4813399;29;20066;-85
2023/08/27 10:04:22;;;;;;;2.05;0.70;;;20.10;99.90;;;;;;4801041;29;20700;-93
2023/08/27 10:06:48;;;;;;;3.67;1.00;;;20.30;99.90;;;;;;4797798;29;20041;-88
2023/08/27 10:09:15;;;;;;;1.30;0.70;;;20.50;99.90;;;;;;4830501;29;20244;-85
2023/08/27 10:11:44;;;;;;;2.40;0.70;;;20.60;99.90;;;;;;4817896;29;20052;-86
2023/08/27 10:14:10;;;;;;;0.95;0.70;;;20.90;99.90;;;;;;4835591;29;20056;-92
2023/08/27 10:16:37;;;;;;;1.15;0.57;;;21.10;99.90;;;;;;4840073;29;20040;-89
2023/08/27 10:19:06;;;;;;;1.27;0.75;;;21.00;99.90;;;;;;4826888;29;20076;-95
2023/08/27 10:21:32;;;;;;;1.75;0.65;;;20.80;99.90;;;;;;4816611;29;20069;-91
2023/08/27 10:23:59;;;;;;;2.38;0.80;;;20.90;99.90;;;;;;4815309;29;20088;-90
2023/08/27 10:26:24;;;;;;;1.00;0.60;;;21.00;99.90;;;;;;4823423;29;20052;-94
2023/08/27 10:28:54;;;;;;;0.82;0.50;;;21.20;99.90;;;;;;4792930;29;20045;-88
2023/08/27 10:31:20;;;;;;;1.00;0.50;;;21.40;99.90;;;;;;4834558;29;20520;-90
2023/08/27 10:33:46;;;;;;;0.83;0.50;;;21.60;99.90;;;;;;4809477;29;20037;-88
2023/08/27 10:36:16;;;;;;;0.95;0.50;;;21.70;99.90;;;;;;4825057;29;20052;-91
2023/08/27 10:38:44;;;;;;;2.40;0.50;;;21.80;99.90;;;;;;4821061;29;20199;-91
2023/08/27 10:41:14;;;;;;;0.75;0.50;;;21.90;99.90;;;;;;4821756;29;20072;-95
2023/08/27 10:43:40;;;;;;;1.00;0.50;;;22.00;99.90;;;;;;4812217;29;20040;-88
2023/08/27 10:46:24;;;;;;;0.82;0.52;;;22.00;99.90;;;;;;4820477;29;20045;-86
2023/08/27 10:48:52;;;;;;;1.15;0.40;;;21.80;99.90;;;;;;4821996;29;20041;-86
2023/08/27 10:51:21;;;;;;;0.90;0.32;;;21.80;99.90;;;;;;4824072;29;20128;-83
2023/08/27 10:53:49;;;;;;;1.17;0.50;;;21.90;99.90;;;;;;4811032;29;20124;-83
2023/08/27 10:56:28;;;;;;;1.00;0.50;;;22.00;99.90;;;;;;4814226;29;20373;-84
2023/08/27 10:59:02;;;;;;;1.58;0.50;;;22.20;99.90;;;;;;4820961;29;20041;-86
2023/08/27 11:01:28;;;;;;;3.72;0.57;;;22.30;99.90;;;;;;4835691;29;20064;-83
2023/08/27 11:04:00;;;;;;;2.38;0.47;;;22.50;99.90;;;;;;4819015;29;20061;-83
2023/08/27 11:06:45;;;;;;;2.17;0.68;;;22.60;99.90;;;;;;4838512;29;20081;-84
2023/08/27 11:09:14;;;;;;;2.10;0.98;;;22.70;99.90;;;;;;4818009;29;20486;-82
2023/08/27 11:11:42;;;;;;;1.08;0.70;;;22.60;99.90;;;;;;4829796;29;20040;-87
2023/08/27 11:14:10;;;;;;;2.17;0.60;;;22.60;99.90;;;;;;4831944;29;20500;-84
2023/08/27 11:16:48;;;;;;;0.82;0.47;;;22.70;99.90;;;;;;4817175;29;20418;-83
2023/08/27 11:19:23;;;;;;;2.60;0.52;;;22.80;99.90;;;;;;4827987;29;20157;-83
2023/08/27 11:21:49;;;;;;;1.48;0.60;;;23.00;99.90;;;;;;4815130;29;20065;-83
2023/08/27 11:24:15;;;;;;;1.45;0.63;;;23.00;99.90;;;;;;4826779;29;20064;-84
2023/08/27 11:26:42;;;;;;;1.48;0.68;;;23.00;99.90;;;;;;4817301;29;20069;-83
2023/08/27 11:29:09;;;;;;;;;;;23.00;99.90;;;;;;4820671;29;20042;-89
2023/08/27 11:31:37;;;;;;;1.25;0.75;;;22.90;99.90;;;;;;4805971;29;19920;-87
2023/08/27 11:34:05;;;;;;;3.05;0.80;;;23.00;99.90;;;;;;4808522;29;20052;-86
2023/08/27 11:36:31;;;;;;;1.40;0.73;;;23.00;99.90;;;;;;4836727;29;20231;-85
2023/08/27 11:39:05;;;;;;;0.68;0.50;;;23.10;99.90;;;;;;4808202;29;20398;-91
2023/08/27 11:41:39;;;;;;;1.13;0.60;;;23.10;99.90;;;;;;4819247;29;20052;-87
2023/08/27 11:44:07;;;;;;;2.33;0.82;;;23.10;99.90;;;;;;4820206;29;20495;-86
2023/08/27 11:46:34;;;;;;;2.25;0.90;;;23.20;99.90;;;;;;4813037;29;20050;-87
2023/08/27 11:48:59;;;;;;;;;;;23.10;99.90;;;;;;4824902;29;20041;-92
2023/08/27 11:51:26;;;;;;;1.48;0.85;;;22.90;99.90;;;;;;4816347;29;19975;-90
2023/08/27 11:53:52;;;;;;;1.88;0.98;;;22.70;99.90;;;;;;4834259;29;20128;-87
2023/08/27 11:56:18;;;;;;;1.27;0.65;;;22.50;99.90;;;;;;4790858;29;20045;-87
2023/08/27 11:58:49;;;;;;;1.10;0.70;;;22.30;99.90;;;;;;4832869;29;20045;-90
2023/08/27 12:01:16;;;;;;;1.63;0.60;;;;;;;;;;4827491;29;20524;-88
2023/08/27 12:03:43;;;;;;;1.30;0.68;;;21.50;99.90;;;;;;4820424;29;20129;-90
2023/08/27 12:06:17;;;;;;;1.60;0.68;;;21.00;99.90;;;;;;4813708;29;20402;-89
2023/08/27 12:08:48;;;;;;;2.42;0.73;;;20.20;99.90;;;;;;4839304;29;20093;-91
2023/08/27 12:11:14;;;;;;;0.82;0.60;;;19.50;99.90;;;;;;4839366;29;20128;-88
2023/08/27 12:13:42;;;;;;;1.75;0.80;;;19.00;99.90;;;;;;4824199;29;20037;-89
2023/08/27 12:16:08;;;;;;;0.80;0.60;;;18.80;99.90;;;;;;4816886;29;20423;-89
2023/08/27 12:18:38;;;;;;;1.50;0.50;;;18.70;99.90;;;;;;4807910;29;20057;-91
2023/08/27 12:21:06;;;;;;;1.63;0.60;;;18.70;99.90;;;;;;4817845;29;20096;-89
2023/08/27 12:23:33;;;;;;;0.63;0.50;;;18.50;99.90;;;;;;4838244;29;20057;-90
2023/08/27 12:26:02;;;;;;;1.35;0.63;;;18.50;99.90;;;;;;4809824;29;20057;-91
2023/08/27 12:28:28;;;;;;;0.95;0.40;;;18.30;99.90;;;;;;4829817;29;20046;-89
2023/08/27 12:30:58;;;;;;;1.83;0.50;;;18.20;99.90;;;;;;4835353;29;20060;-87
2023/08/27 12:33:39;;;;;;;0.73;0.30;;;18.00;99.90;;;;;;4819486;29;20069;-92
2023/08/27 12:36:07;;;;;;;0.85;0.30;;;17.80;99.90;;;;;;4835572;29;20536;-90
2023/08/27 12:38:35;;;;;;;2.03;0.45;;;17.60;99.90;;;;;;4828263;29;20050;-90
2023/08/27 12:41:01;;;;;;;1.35;0.20;;;17.40;99.90;;;;;;4806024;29;20053;-89
2023/08/27 12:43:27;;;;;;;0.43;0.22;;;17.30;99.90;;;;;;4815816;29;20049;-90
2023/08/27 12:45:54;;;;;;;0.50;0.30;;;17.20;99.90;;;;;;4797261;29;20048;-88
2023/08/27 12:48:20;;;;;;;1.45;0.38;;;17.00;99.90;;;;;;4814477;29;20046;-89